createdAt,value
2018-03-20T00:00:26.033Z,-1.57
2018-03-20T00:01:31.750Z,-1.56
2018-03-20T00:02:37.452Z,-1.55
2018-03-20T00:03:43.929Z,-1.55
2018-03-20T00:04:49.432Z,-1.57
2018-03-20T00:05:55.231Z,-1.57
2018-03-20T00:07:00.941Z,-1.58
2018-03-20T00:08:06.713Z,-1.57
2018-03-20T00:09:12.421Z,-1.62
2018-03-20T00:10:17.947Z,-1.63
2018-03-20T00:11:24.504Z,-1.64
2018-03-20T00:12:30.996Z,-1.65
2018-03-20T00:13:36.713Z,-1.65
2018-03-20T00:14:43.182Z,-1.65
2018-03-20T00:15:48.889Z,-1.66
2018-03-20T00:16:54.625Z,-1.67
2018-03-20T00:18:01.097Z,-1.66
2018-03-20T00:19:07.566Z,-1.68
2018-03-20T00:20:14.027Z,-1.67
2018-03-20T00:21:19.734Z,-1.69
2018-03-20T00:22:26.232Z,-1.68
2018-03-20T00:23:31.940Z,-1.67
2018-03-20T00:24:37.653Z,-1.67
2018-03-20T00:25:43.389Z,-1.69
2018-03-20T00:26:49.099Z,-1.69
2018-03-20T00:27:54.830Z,-1.70
2018-03-20T00:29:00.540Z,-1.68
2018-03-20T00:30:05.699Z,-1.70
2018-03-20T00:31:12.269Z,-1.70
2018-03-20T00:32:17.989Z,-1.72
2018-03-20T00:33:24.308Z,-1.72
2018-03-20T00:34:30.028Z,-1.72
2018-03-20T00:35:35.807Z,-1.72
2018-03-20T00:36:41.309Z,-1.74
2018-03-20T00:37:47.020Z,-1.75
2018-03-20T00:38:52.750Z,-1.75
2018-03-20T00:39:58.457Z,-1.76
2018-03-20T00:41:04.177Z,-1.77
2018-03-20T00:42:10.107Z,-1.77
2018-03-20T00:43:15.824Z,-1.79
2018-03-20T00:44:21.548Z,-1.80
2018-03-20T00:45:28.028Z,-1.81
2018-03-20T00:46:33.730Z,-1.81
2018-03-20T00:47:39.438Z,-1.80
2018-03-20T00:48:45.148Z,-1.79
2018-03-20T00:49:50.857Z,-1.80
2018-03-20T00:50:56.563Z,-1.80
2018-03-20T00:52:02.258Z,-1.83
2018-03-20T00:53:07.984Z,-1.81
2018-03-20T00:54:13.683Z,-1.81
2018-03-20T00:55:19.393Z,-1.84
2018-03-20T00:56:24.905Z,-1.84
2018-03-20T00:57:31.362Z,-1.85
2018-03-20T00:58:37.840Z,-1.86
2018-03-20T00:59:43.543Z,-1.85
2018-03-20T01:00:49.271Z,-1.86
2018-03-20T01:01:54.970Z,-1.88
2018-03-20T01:03:00.683Z,-1.87
2018-03-20T01:04:07.172Z,-1.89
2018-03-20T01:05:12.896Z,-1.89
2018-03-20T01:06:19.056Z,-1.93
2018-03-20T01:07:24.765Z,-1.92
2018-03-20T01:08:31.241Z,-1.91
2018-03-20T01:09:36.712Z,-1.92
2018-03-20T01:10:42.418Z,-1.91
2018-03-20T01:11:48.954Z,-1.89
2018-03-20T01:12:54.650Z,-1.86
2018-03-20T01:14:00.348Z,-1.89
2018-03-20T01:15:06.813Z,-1.89
2018-03-20T01:16:13.337Z,-1.92
2018-03-20T01:17:19.070Z,-1.94
2018-03-20T01:18:25.056Z,-1.94
2018-03-20T01:19:31.403Z,-1.94
2018-03-20T01:20:37.873Z,-1.95
2018-03-20T01:21:44.413Z,-1.96
2018-03-20T01:22:50.124Z,-1.98
2018-03-20T01:23:55.836Z,-2.00
2018-03-20T01:25:01.537Z,-2.02
2018-03-20T01:26:07.236Z,-2.02
2018-03-20T01:27:12.966Z,-2.04
2018-03-20T01:28:18.873Z,-2.05
2018-03-20T01:29:25.349Z,-2.04
2018-03-20T01:30:31.089Z,-2.04
2018-03-20T01:31:37.548Z,-2.03
2018-03-20T01:32:43.285Z,-2.03
2018-03-20T01:33:49.749Z,-2.03
2018-03-20T01:34:55.461Z,-2.05
2018-03-20T01:36:01.165Z,-2.06
2018-03-20T01:37:06.861Z,-2.05
2018-03-20T01:38:12.616Z,-2.06
2018-03-20T01:39:18.316Z,-2.03
2018-03-20T01:40:24.788Z,-2.04
2018-03-20T01:41:31.370Z,-2.05
2018-03-20T01:42:37.084Z,-2.05
2018-03-20T01:43:42.805Z,-2.05
2018-03-20T01:44:48.509Z,-2.03
2018-03-20T01:45:54.212Z,-2.02
2018-03-20T01:47:00.681Z,-2.03
2018-03-20T01:48:06.398Z,-2.02
2018-03-20T01:49:12.172Z,-2.02
2018-03-20T01:50:17.872Z,-2.04
2018-03-20T01:51:23.581Z,-2.04
2018-03-20T01:52:29.355Z,-2.08
2018-03-20T01:53:35.261Z,-2.06
2018-03-20T01:54:41.052Z,-2.06
2018-03-20T01:55:46.768Z,-2.04
2018-03-20T01:56:52.503Z,-2.02
2018-03-20T01:57:58.402Z,-2.04
2018-03-20T01:59:04.084Z,-2.05
2018-03-20T02:00:09.818Z,-2.06
2018-03-20T02:01:15.529Z,-2.09
2018-03-20T02:02:21.247Z,-2.09
2018-03-20T02:03:26.933Z,-2.09
2018-03-20T02:04:32.643Z,-2.07
2018-03-20T02:05:38.358Z,-2.09
2018-03-20T02:06:44.076Z,-2.08
2018-03-20T02:07:49.778Z,-2.09
2018-03-20T02:08:55.485Z,-2.10
2018-03-20T02:10:01.970Z,-2.09
2018-03-20T02:11:08.522Z,-2.13
2018-03-20T02:12:14.984Z,-2.12
2018-03-20T02:13:20.684Z,-2.13
2018-03-20T02:14:27.173Z,-2.15
2018-03-20T02:15:33.660Z,-2.20
2018-03-20T02:16:39.363Z,-2.24
2018-03-20T02:17:45.856Z,-2.27
2018-03-20T02:18:51.553Z,-2.27
2018-03-20T02:19:57.256Z,-2.26
2018-03-20T02:21:02.982Z,-2.26
2018-03-20T02:22:08.680Z,-2.27
2018-03-20T02:23:15.145Z,-2.29
2018-03-20T02:24:21.625Z,-2.30
2018-03-20T02:25:27.327Z,-2.27
2018-03-20T02:26:33.062Z,-2.23
2018-03-20T02:27:38.761Z,-2.25
2018-03-20T02:28:44.466Z,-2.28
2018-03-20T02:29:50.940Z,-2.31
2018-03-20T02:30:56.676Z,-2.32
2018-03-20T02:32:03.163Z,-2.35
2018-03-20T02:33:08.890Z,-2.36
2018-03-20T02:34:14.631Z,-2.36
2018-03-20T02:35:20.373Z,-2.38
2018-03-20T02:36:26.075Z,-2.41
2018-03-20T02:37:32.675Z,-2.44
2018-03-20T02:38:38.380Z,-2.42
2018-03-20T02:39:44.864Z,-2.42
2018-03-20T02:40:50.562Z,-2.44
2018-03-20T02:41:56.474Z,-2.46
2018-03-20T02:43:02.204Z,-2.44
2018-03-20T02:44:07.915Z,-2.48
2018-03-20T02:45:13.608Z,-2.50
2018-03-20T02:46:23.428Z,-2.50
2018-03-20T02:47:29.152Z,-2.49
2018-03-20T02:48:34.886Z,-2.51
2018-03-20T02:49:40.596Z,-2.49
2018-03-20T02:50:46.302Z,-2.51
2018-03-20T02:51:52.018Z,-2.49
2018-03-20T02:52:57.401Z,-2.51
2018-03-20T02:54:03.125Z,-2.51
2018-03-20T02:55:08.851Z,-2.52
2018-03-20T02:56:14.566Z,-2.51
2018-03-20T02:57:20.265Z,-2.55
2018-03-20T02:58:25.969Z,-2.55
2018-03-20T02:59:31.681Z,-2.53
2018-03-20T03:00:37.394Z,-2.51
2018-03-20T03:01:43.101Z,-2.52
2018-03-20T03:02:49.005Z,-2.51
2018-03-20T03:03:54.800Z,-2.54
2018-03-20T03:05:00.513Z,-2.55
2018-03-20T03:06:06.229Z,-2.54
2018-03-20T03:07:11.960Z,-2.57
2018-03-20T03:08:18.448Z,-2.59
2018-03-20T03:09:24.216Z,-2.62
2018-03-20T03:10:29.965Z,-2.65
2018-03-20T03:11:35.677Z,-2.66
2018-03-20T03:12:41.368Z,-2.69
2018-03-20T03:13:47.072Z,-2.72
2018-03-20T03:14:52.587Z,-2.73
2018-03-20T03:15:58.308Z,-2.75
2018-03-20T03:17:04.021Z,-2.73
2018-03-20T03:18:09.714Z,-2.75
2018-03-20T03:19:15.449Z,-2.78
2018-03-20T03:20:21.161Z,-2.80
2018-03-20T03:21:27.657Z,-2.80
2018-03-20T03:22:33.403Z,-2.86
2018-03-20T03:23:39.102Z,-2.86
2018-03-20T03:24:45.565Z,-2.85
2018-03-20T03:25:52.024Z,-2.85
2018-03-20T03:26:57.744Z,-2.89
2018-03-20T03:28:03.442Z,-2.91
2018-03-20T03:29:09.154Z,-2.91
2018-03-20T03:30:14.845Z,-2.93
2018-03-20T03:31:20.550Z,-2.94
2018-03-20T03:32:26.301Z,-2.94
2018-03-20T03:33:31.998Z,-2.95
2018-03-20T03:34:37.916Z,-2.97
2018-03-20T03:35:43.636Z,-2.97
2018-03-20T03:36:49.328Z,-2.98
2018-03-20T03:37:55.826Z,-3.00
2018-03-20T03:39:01.553Z,-3.00
2018-03-20T03:40:07.483Z,-3.00
2018-03-20T03:41:13.940Z,-3.00
2018-03-20T03:42:19.649Z,-3.02
2018-03-20T03:43:25.364Z,-3.05
2018-03-20T03:44:31.081Z,-3.05
2018-03-20T03:45:36.785Z,-3.07
2018-03-20T03:46:42.480Z,-3.05
2018-03-20T03:47:48.187Z,-3.08
2018-03-20T03:48:53.904Z,-3.10
2018-03-20T03:50:00.372Z,-3.12
2018-03-20T03:51:05.513Z,-3.13
2018-03-20T03:52:11.222Z,-3.13
2018-03-20T03:53:16.917Z,-3.14
2018-03-20T03:54:22.646Z,-3.14
2018-03-20T03:55:28.355Z,-3.16
2018-03-20T03:56:34.832Z,-3.13
2018-03-20T03:57:40.552Z,-3.16
2018-03-20T03:58:47.033Z,-3.19
2018-03-20T03:59:52.760Z,-3.21
2018-03-20T04:00:58.518Z,-3.21
2018-03-20T04:02:04.221Z,-3.22
2018-03-20T04:03:09.924Z,-3.26
2018-03-20T04:04:15.632Z,-3.23
2018-03-20T04:05:21.354Z,-3.23
2018-03-20T04:06:27.065Z,-3.27
2018-03-20T04:07:32.803Z,-3.26
2018-03-20T04:08:38.523Z,-3.26
2018-03-20T04:09:44.228Z,-3.27
2018-03-20T04:10:49.968Z,-3.25
2018-03-20T04:11:55.493Z,-3.23
2018-03-20T04:13:01.962Z,-3.22
2018-03-20T04:14:07.677Z,-3.22
2018-03-20T04:15:14.149Z,-3.21
2018-03-20T04:16:20.634Z,-3.21
2018-03-20T04:17:26.343Z,-3.22
2018-03-20T04:18:32.818Z,-3.20
2018-03-20T04:19:38.540Z,-3.20
2018-03-20T04:20:44.830Z,-3.22
2018-03-20T04:21:50.252Z,-3.21
2018-03-20T04:22:56.541Z,-3.23
2018-03-20T04:24:02.285Z,-3.25
2018-03-20T04:25:08.017Z,-3.25
2018-03-20T04:26:13.725Z,-3.21
2018-03-20T04:27:20.214Z,-3.21
2018-03-20T04:28:25.916Z,-3.18
2018-03-20T04:29:32.383Z,-3.17
2018-03-20T04:30:38.092Z,-3.24
2018-03-20T04:31:43.788Z,-3.24
2018-03-20T04:32:49.526Z,-3.22
2018-03-20T04:33:55.247Z,-3.21
2018-03-20T04:35:00.961Z,-3.20
2018-03-20T04:36:06.656Z,-3.20
2018-03-20T04:37:12.394Z,-3.19
2018-03-20T04:38:18.447Z,-3.20
2018-03-20T04:39:23.964Z,-3.20
2018-03-20T04:40:29.680Z,-3.18
2018-03-20T04:41:36.149Z,-3.16
2018-03-20T04:42:41.861Z,-3.15
2018-03-20T04:43:48.612Z,-3.10
2018-03-20T04:44:54.302Z,-3.05
2018-03-20T04:46:00.012Z,-3.05
2018-03-20T04:47:06.474Z,-3.03
2018-03-20T04:48:13.395Z,-3.00
2018-03-20T04:49:19.276Z,-2.95
2018-03-20T04:50:25.765Z,-2.89
2018-03-20T04:51:31.477Z,-2.83
2018-03-20T04:52:37.176Z,-2.78
2018-03-20T04:53:42.869Z,-2.74
2018-03-20T04:54:49.369Z,-2.69
2018-03-20T04:55:55.090Z,-2.63
2018-03-20T04:57:00.601Z,-2.55
2018-03-20T04:58:07.077Z,-2.52
2018-03-20T04:59:12.838Z,-2.50
2018-03-20T05:00:18.716Z,-2.48
2018-03-20T05:01:24.417Z,-2.41
2018-03-20T05:02:34.834Z,-2.31
2018-03-20T05:03:40.764Z,-2.24
2018-03-20T05:04:46.485Z,-2.19
2018-03-20T05:05:52.188Z,-2.19
2018-03-20T05:06:57.934Z,-2.18
2018-03-20T05:08:03.645Z,-2.08
2018-03-20T05:09:10.108Z,-2.06
2018-03-20T05:10:16.588Z,-2.06
2018-03-20T05:11:23.139Z,-2.04
2018-03-20T05:12:29.597Z,-1.96
2018-03-20T05:13:35.297Z,-1.97
2018-03-20T05:14:41.034Z,-2.00
2018-03-20T05:15:46.537Z,-2.01
2018-03-20T05:16:51.851Z,-2.03
2018-03-20T05:17:57.792Z,-1.98
2018-03-20T05:19:15.193Z,-1.93
2018-03-20T05:20:26.952Z,-1.89
2018-03-20T05:23:16.368Z,-1.81
2018-03-20T05:24:21.942Z,-1.75
2018-03-20T05:25:27.609Z,-1.72
2018-03-20T05:26:33.133Z,-1.72
2018-03-20T05:27:38.689Z,-1.65
2018-03-20T05:28:44.996Z,-1.58
2018-03-20T05:29:50.575Z,-1.58
2018-03-20T05:30:56.111Z,-1.59
2018-03-20T05:32:01.621Z,-1.60
2018-03-20T05:33:07.143Z,-1.53
2018-03-20T05:34:12.701Z,-1.50
2018-03-20T05:35:18.216Z,-1.45
2018-03-20T05:36:23.728Z,-1.47
2018-03-20T05:37:29.258Z,-1.46
2018-03-20T05:38:34.802Z,-1.45
2018-03-20T05:39:41.079Z,-1.43
2018-03-20T05:40:46.588Z,-1.43
2018-03-20T05:41:52.154Z,-1.38
2018-03-20T05:42:58.586Z,-1.26
2018-03-20T05:44:04.142Z,-1.21
2018-03-20T05:45:09.650Z,-1.22
2018-03-20T05:46:15.158Z,-1.25
2018-03-20T05:47:26.976Z,-1.26
2018-03-20T05:48:38.096Z,-1.24
2018-03-20T05:51:32.945Z,-1.17
2018-03-20T05:52:38.473Z,-1.18
2018-03-20T05:53:44.197Z,-1.18
2018-03-20T05:54:50.674Z,-1.18
2018-03-20T05:55:56.416Z,-1.14
2018-03-20T05:57:02.130Z,-1.13
2018-03-20T05:58:08.588Z,-1.14
2018-03-20T05:59:15.085Z,-1.10
2018-03-20T06:00:20.799Z,-1.10
2018-03-20T06:01:26.336Z,-1.14
2018-03-20T06:02:32.060Z,-1.11
2018-03-20T06:03:37.755Z,-1.07
2018-03-20T06:04:43.446Z,-1.04
2018-03-20T06:05:49.946Z,-1.01
2018-03-20T06:06:55.641Z,-0.93
2018-03-20T06:08:02.110Z,-0.84
2018-03-20T06:09:08.576Z,-0.74
2018-03-20T06:10:14.268Z,-0.73
2018-03-20T06:11:20.055Z,-0.71
2018-03-20T06:12:26.308Z,-0.67
2018-03-20T06:13:32.021Z,-0.69
2018-03-20T06:14:37.728Z,-0.70
2018-03-20T06:15:43.415Z,-0.68
2018-03-20T06:16:49.736Z,-0.66
2018-03-20T06:17:55.429Z,-0.57
2018-03-20T06:19:01.166Z,-0.51
2018-03-20T06:20:07.630Z,-0.44
2018-03-20T06:21:13.343Z,-0.40
2018-03-20T06:22:19.070Z,-0.35
2018-03-20T06:23:24.777Z,-0.35
2018-03-20T06:24:30.498Z,-0.34
2018-03-20T06:25:36.202Z,-0.34
2018-03-20T06:26:41.904Z,-0.31
2018-03-20T06:27:47.915Z,-0.29
2018-03-20T06:28:54.377Z,-0.29
2018-03-20T06:30:00.073Z,-0.29
2018-03-20T06:31:05.785Z,-0.25
2018-03-20T06:32:11.507Z,-0.18
2018-03-20T06:33:17.241Z,-0.16
2018-03-20T06:34:22.957Z,-0.17
2018-03-20T06:35:28.665Z,-0.17
2018-03-20T06:36:34.369Z,-0.15
2018-03-20T06:37:40.103Z,-0.16
2018-03-20T06:38:45.848Z,-0.13
2018-03-20T06:39:51.555Z,-0.15
2018-03-20T06:40:57.315Z,-0.16
2018-03-20T06:42:03.025Z,-0.22
2018-03-20T06:43:08.721Z,-0.26
2018-03-20T06:44:14.446Z,-0.23
2018-03-20T06:45:20.189Z,-0.17
2018-03-20T06:46:25.906Z,-0.10
2018-03-20T06:47:31.609Z,-0.05
2018-03-20T06:48:37.317Z,-0.02
2018-03-20T06:49:43.045Z,-0.05
2018-03-20T06:50:48.760Z,-0.11
2018-03-20T06:51:55.249Z,-0.08
2018-03-20T06:53:00.957Z,-0.13
2018-03-20T06:54:06.673Z,-0.12
2018-03-20T06:55:12.415Z,-0.07
2018-03-20T06:56:18.120Z,-0.05
2018-03-20T06:57:23.828Z,-0.01
2018-03-20T06:58:30.298Z,0.01
2018-03-20T06:59:36.822Z,-0.13
2018-03-20T07:00:42.710Z,-0.09
2018-03-20T07:01:48.229Z,-0.12
2018-03-20T07:02:54.699Z,-0.13
2018-03-20T07:04:00.415Z,-0.06
2018-03-20T07:05:06.905Z,0.00
2018-03-20T07:06:13.101Z,0.00
2018-03-20T07:07:18.989Z,-0.03
2018-03-20T07:08:25.465Z,0.01
2018-03-20T07:09:31.189Z,0.04
2018-03-20T07:10:37.657Z,0.01
2018-03-20T07:11:43.421Z,-0.09
2018-03-20T07:12:49.112Z,-0.13
2018-03-20T07:13:54.812Z,-0.11
2018-03-20T07:15:00.525Z,-0.09
2018-03-20T07:16:06.231Z,-0.10
2018-03-20T07:17:12.857Z,-0.14
2018-03-20T07:18:18.569Z,-0.13
2018-03-20T07:19:24.265Z,-0.13
2018-03-20T07:20:30.551Z,-0.15
2018-03-20T07:21:36.260Z,-0.11
2018-03-20T07:22:42.017Z,-0.03
2018-03-20T07:23:48.484Z,0.03
2018-03-20T07:24:54.968Z,-0.01
2018-03-20T07:26:00.682Z,-0.07
2018-03-20T07:27:07.349Z,-0.10
2018-03-20T07:28:13.105Z,-0.03
2018-03-20T07:29:18.829Z,-0.11
2018-03-20T07:30:24.547Z,-0.01
2018-03-20T07:31:30.264Z,0.06
2018-03-20T07:32:35.961Z,0.05
2018-03-20T07:33:41.685Z,0.09
2018-03-20T07:34:47.439Z,0.11
2018-03-20T07:35:53.131Z,0.09
2018-03-20T07:36:58.819Z,0.11
2018-03-20T07:38:04.514Z,0.16
2018-03-20T07:39:10.277Z,0.20
2018-03-20T07:40:16.124Z,0.23
2018-03-20T07:41:22.598Z,0.26
2018-03-20T07:42:29.046Z,0.20
2018-03-20T07:43:34.756Z,0.22
2018-03-20T07:44:40.486Z,0.22
2018-03-20T07:45:46.170Z,0.26
2018-03-20T07:46:51.853Z,0.26
2018-03-20T07:47:57.549Z,0.24
2018-03-20T07:49:04.000Z,0.19
2018-03-20T07:50:10.510Z,0.20
2018-03-20T07:51:16.201Z,0.24
2018-03-20T07:52:22.673Z,0.22
2018-03-20T07:53:28.363Z,0.19
2018-03-20T07:54:33.871Z,0.17
2018-03-20T07:55:39.479Z,0.14
2018-03-20T07:56:45.385Z,0.03
2018-03-20T07:57:51.085Z,0.06
2018-03-20T07:58:56.792Z,0.04
2018-03-20T08:00:02.487Z,0.04
2018-03-20T08:01:08.209Z,0.05
2018-03-20T08:02:13.911Z,0.00
2018-03-20T08:03:19.604Z,-0.01
2018-03-20T08:04:26.079Z,0.07
2018-03-20T08:05:31.770Z,0.12
2018-03-20T08:06:38.380Z,0.19
2018-03-20T08:07:44.075Z,0.26
2018-03-20T08:08:50.545Z,0.26
2018-03-20T08:09:57.012Z,0.28
2018-03-20T08:11:02.803Z,0.30
2018-03-20T08:12:08.522Z,0.31
2018-03-20T08:13:14.289Z,0.37
2018-03-20T08:14:20.192Z,0.44
2018-03-20T08:15:26.127Z,0.53
2018-03-20T08:16:31.837Z,0.60
2018-03-20T08:17:38.312Z,0.74
2018-03-20T08:18:43.767Z,0.79
2018-03-20T08:19:49.459Z,0.87
2018-03-20T08:20:55.936Z,0.93
2018-03-20T08:22:02.396Z,0.98
2018-03-20T08:23:08.125Z,0.94
2018-03-20T08:24:14.605Z,1.02
2018-03-20T08:25:21.052Z,1.07
2018-03-20T08:26:26.752Z,1.17
2018-03-20T08:27:32.461Z,1.25
2018-03-20T08:28:38.185Z,1.37
2018-03-20T08:29:43.872Z,1.39
2018-03-20T08:30:49.599Z,1.53
2018-03-20T08:31:56.420Z,1.60
2018-03-20T08:33:02.120Z,1.74
2018-03-20T08:34:07.846Z,1.90
2018-03-20T08:35:13.558Z,2.03
2018-03-20T08:36:19.254Z,2.13
2018-03-20T08:37:24.940Z,2.12
2018-03-20T08:38:30.676Z,2.22
2018-03-20T08:39:36.384Z,2.32
2018-03-20T08:40:43.172Z,2.35
2018-03-20T08:41:48.545Z,2.41
2018-03-20T08:42:54.339Z,2.46
2018-03-20T08:44:00.038Z,2.46
2018-03-20T08:45:05.744Z,2.44
2018-03-20T08:46:11.449Z,2.54
2018-03-20T08:47:17.912Z,2.58
2018-03-20T08:48:24.392Z,2.59
2018-03-20T08:49:30.103Z,2.56
2018-03-20T08:50:36.580Z,2.59
2018-03-20T08:51:42.523Z,2.67
2018-03-20T08:52:49.041Z,2.68
2018-03-20T08:53:54.747Z,2.63
2018-03-20T08:55:00.435Z,2.58
2018-03-20T08:56:06.921Z,2.54
2018-03-20T08:57:12.616Z,2.53
2018-03-20T08:58:18.304Z,2.48
2018-03-20T08:59:24.018Z,2.48
2018-03-20T09:00:30.520Z,2.49
2018-03-20T09:05:03.085Z,2.18
2018-03-20T09:06:09.539Z,2.20
2018-03-20T09:07:15.828Z,2.28
2018-03-20T09:08:21.534Z,2.39
2018-03-20T09:09:28.010Z,2.47
2018-03-20T09:10:33.708Z,2.54
2018-03-20T09:11:39.424Z,2.57
2018-03-20T09:12:45.129Z,2.52
2018-03-20T09:13:50.832Z,2.52
2018-03-20T09:14:56.557Z,2.58
2018-03-20T09:16:03.752Z,2.67
2018-03-20T09:17:09.449Z,2.69
2018-03-20T09:18:15.186Z,2.74
2018-03-20T09:19:20.885Z,2.80
2018-03-20T09:20:27.358Z,2.81
2018-03-20T09:21:33.822Z,2.76
2018-03-20T09:22:39.516Z,2.69
2018-03-20T09:23:45.236Z,2.66
2018-03-20T09:24:50.943Z,2.67
2018-03-20T09:25:56.653Z,2.72
2018-03-20T09:27:03.121Z,2.75
2018-03-20T09:28:09.588Z,2.80
2018-03-20T09:29:16.066Z,2.79
2018-03-20T09:30:21.800Z,2.81
2018-03-20T09:31:28.448Z,2.81
2018-03-20T09:32:34.148Z,2.86
2018-03-20T09:33:39.858Z,2.88
2018-03-20T09:34:45.571Z,2.91
2018-03-20T09:35:52.037Z,2.85
2018-03-20T09:36:57.738Z,2.91
2018-03-20T09:38:03.494Z,2.91
2018-03-20T09:39:09.222Z,2.81
2018-03-20T09:40:14.929Z,2.80
2018-03-20T09:41:20.633Z,2.79
2018-03-20T09:42:27.090Z,2.76
2018-03-20T09:43:32.780Z,2.75
2018-03-20T09:44:38.947Z,2.73
2018-03-20T09:45:44.679Z,2.83
2018-03-20T09:46:50.374Z,2.86
2018-03-20T09:47:56.064Z,2.91
2018-03-20T09:49:01.772Z,2.99
2018-03-20T09:50:07.669Z,3.10
2018-03-20T09:51:14.180Z,3.16
2018-03-20T09:52:19.876Z,3.18
2018-03-20T09:53:26.404Z,3.20
2018-03-20T09:54:31.793Z,3.28
2018-03-20T09:55:37.484Z,3.31
2018-03-20T09:56:43.220Z,3.30
2018-03-20T09:57:48.971Z,3.36
2018-03-20T09:58:54.667Z,3.45
2018-03-20T10:00:00.372Z,3.52
2018-03-20T10:01:06.076Z,3.57
2018-03-20T10:02:11.793Z,3.63
2018-03-20T10:03:17.498Z,3.69
2018-03-20T10:04:23.205Z,3.73
2018-03-20T10:05:28.924Z,3.71
2018-03-20T10:06:34.617Z,3.68
2018-03-20T10:07:41.100Z,3.67
2018-03-20T10:08:46.816Z,3.64
2018-03-20T10:09:53.298Z,3.67
2018-03-20T10:10:58.992Z,3.72
2018-03-20T10:12:04.744Z,3.76
2018-03-20T10:13:10.437Z,3.83
2018-03-20T10:14:16.140Z,3.88
2018-03-20T10:15:21.861Z,3.92
2018-03-20T10:16:27.557Z,3.87
2018-03-20T10:17:33.285Z,3.87
2018-03-20T10:18:38.989Z,3.92
2018-03-20T10:19:45.461Z,3.96
2018-03-20T10:20:51.166Z,4.05
2018-03-20T10:21:56.876Z,4.13
2018-03-20T10:23:02.612Z,4.14
2018-03-20T10:24:08.325Z,4.25
2018-03-20T10:25:14.044Z,4.40
2018-03-20T10:26:19.545Z,4.47
2018-03-20T10:27:25.451Z,4.53
2018-03-20T10:28:31.287Z,4.53
2018-03-20T10:29:37.033Z,4.52
2018-03-20T10:30:42.912Z,4.49
2018-03-20T10:31:48.610Z,4.45
2018-03-20T10:32:55.078Z,4.41
2018-03-20T10:34:00.796Z,4.42
2018-03-20T10:35:06.515Z,4.51
2018-03-20T10:36:12.234Z,4.53
2018-03-20T10:37:17.933Z,4.52
2018-03-20T10:38:23.726Z,4.47
2018-03-20T10:39:29.721Z,4.48
2018-03-20T10:40:35.426Z,4.58
2018-03-20T10:41:41.126Z,4.63
2018-03-20T10:42:46.850Z,4.56
2018-03-20T10:43:52.575Z,4.51
2018-03-20T10:44:58.561Z,4.45
2018-03-20T10:46:04.269Z,4.39
2018-03-20T10:47:09.999Z,4.29
2018-03-20T10:48:16.610Z,4.28
2018-03-20T10:49:22.372Z,4.31
2018-03-20T10:50:28.113Z,4.34
2018-03-20T10:51:33.891Z,4.31
2018-03-20T10:52:40.379Z,4.25
2018-03-20T10:53:46.102Z,4.13
2018-03-20T10:54:51.816Z,4.12
2018-03-20T10:55:58.312Z,4.13
2018-03-20T10:57:04.042Z,4.09
2018-03-20T10:58:09.748Z,4.05
2018-03-20T10:59:16.280Z,4.17
2018-03-20T11:00:27.437Z,4.27
2018-03-20T11:01:33.001Z,4.27
2018-03-20T11:02:44.369Z,4.20
2018-03-20T11:03:50.093Z,4.20
2018-03-20T11:04:56.600Z,4.10
2018-03-20T11:06:03.096Z,4.11
2018-03-20T11:07:08.820Z,4.14
2018-03-20T11:08:14.536Z,4.20
2018-03-20T11:09:21.016Z,4.26
2018-03-20T11:10:26.822Z,4.29
2018-03-20T11:11:32.717Z,4.21
2018-03-20T11:12:38.486Z,4.12
2018-03-20T11:13:44.228Z,4.19
2018-03-20T11:14:49.936Z,4.29
2018-03-20T11:15:55.673Z,4.42
2018-03-20T11:17:01.409Z,4.46
2018-03-20T11:18:07.131Z,4.42
2018-03-20T11:19:13.614Z,4.32
2018-03-20T11:20:19.328Z,4.24
2018-03-20T11:21:25.828Z,4.18
2018-03-20T11:22:31.569Z,4.21
2018-03-20T11:23:37.293Z,4.20
2018-03-20T11:24:43.039Z,4.28
2018-03-20T11:25:48.956Z,4.41
2018-03-20T11:26:54.514Z,4.51
2018-03-20T11:28:00.301Z,4.62
2018-03-20T11:29:06.007Z,4.74
2018-03-20T11:30:11.714Z,4.87
2018-03-20T11:31:18.248Z,5.03
2018-03-20T11:32:23.965Z,5.07
2018-03-20T11:33:29.750Z,5.04
2018-03-20T11:34:36.634Z,4.99
2018-03-20T11:35:42.690Z,5.03
2018-03-20T11:36:48.412Z,5.05
2018-03-20T11:37:54.884Z,5.02
2018-03-20T11:39:00.643Z,4.93
2018-03-20T11:40:06.363Z,4.94
2018-03-20T11:41:12.079Z,4.98
2018-03-20T11:42:18.574Z,5.04
2018-03-20T11:43:23.959Z,5.08
2018-03-20T11:44:29.521Z,5.14
2018-03-20T11:45:35.993Z,5.15
2018-03-20T11:46:41.743Z,5.14
2018-03-20T11:47:47.448Z,5.13
2018-03-20T11:48:53.934Z,5.17
2018-03-20T11:49:59.657Z,5.19
2018-03-20T11:51:06.144Z,5.20
2018-03-20T11:52:11.868Z,5.30
2018-03-20T11:53:17.593Z,5.33
2018-03-20T11:54:24.080Z,5.37
2018-03-20T11:55:29.814Z,5.45
2018-03-20T11:56:35.524Z,5.48
2018-03-20T11:57:42.016Z,5.53
2018-03-20T11:58:47.756Z,5.60
2018-03-20T11:59:53.469Z,5.71
2018-03-20T12:00:59.983Z,5.65
2018-03-20T12:02:05.184Z,5.71
2018-03-20T12:03:10.909Z,5.74
2018-03-20T12:04:17.796Z,5.76
2018-03-20T12:05:23.524Z,5.72
2018-03-20T12:06:30.032Z,5.73
2018-03-20T12:07:34.853Z,5.78
2018-03-20T12:08:51.013Z,5.80
2018-03-20T12:09:56.742Z,5.79
2018-03-20T12:11:02.482Z,5.79
2018-03-20T12:12:08.228Z,5.81
2018-03-20T12:13:14.021Z,5.82
2018-03-20T12:14:19.756Z,5.88
2018-03-20T12:15:25.484Z,5.93
2018-03-20T12:16:31.197Z,6.00
2018-03-20T12:17:36.929Z,6.05
2018-03-20T12:18:42.636Z,6.09
2018-03-20T12:19:48.350Z,6.09
2018-03-20T12:20:55.075Z,6.04
2018-03-20T12:22:00.806Z,6.01
2018-03-20T12:23:05.890Z,5.96
2018-03-20T12:24:11.613Z,5.87
2018-03-20T12:25:17.383Z,5.81
2018-03-20T12:26:23.253Z,5.71
2018-03-20T12:27:28.992Z,5.57
2018-03-20T12:28:35.511Z,5.41
2018-03-20T12:29:41.288Z,5.29
2018-03-20T12:30:47.781Z,5.16
2018-03-20T12:31:53.527Z,5.07
2018-03-20T12:32:59.414Z,4.99
2018-03-20T12:34:05.150Z,4.93
2018-03-20T12:35:10.940Z,4.88
2018-03-20T12:36:16.859Z,4.81
2018-03-20T12:37:23.338Z,4.77
2018-03-20T12:38:29.044Z,4.75
2018-03-20T12:39:34.779Z,4.65
2018-03-20T12:40:40.563Z,4.62
2018-03-20T12:41:46.278Z,4.52
2018-03-20T12:42:52.828Z,4.46
2018-03-20T12:43:58.537Z,4.40
2018-03-20T12:45:04.058Z,4.37
2018-03-20T12:46:09.466Z,4.33
2018-03-20T12:47:15.173Z,4.32
2018-03-20T12:48:20.885Z,4.32
2018-03-20T12:49:26.607Z,4.28
2018-03-20T12:50:33.054Z,4.26
2018-03-20T12:51:38.790Z,4.26
2018-03-20T12:52:44.505Z,4.22
2018-03-20T12:53:50.204Z,4.10
2018-03-20T12:54:56.230Z,4.04
2018-03-20T12:56:01.961Z,4.01
2018-03-20T12:57:07.674Z,4.01
2018-03-20T12:58:14.262Z,3.98
2018-03-20T12:59:20.737Z,3.93
2018-03-20T13:00:26.444Z,3.80
2018-03-20T13:01:32.950Z,3.72
2018-03-20T13:02:38.670Z,3.69
2018-03-20T13:03:44.369Z,3.68
2018-03-20T13:04:50.872Z,3.64
2018-03-20T13:05:56.575Z,3.63
2018-03-20T13:07:03.213Z,3.63
2018-03-20T13:08:08.929Z,3.64
2018-03-20T13:09:14.746Z,3.67
2018-03-20T13:10:20.497Z,3.68
2018-03-20T13:11:27.000Z,3.68
2018-03-20T13:12:32.797Z,3.72
2018-03-20T13:13:38.511Z,3.72
2018-03-20T13:14:45.009Z,3.69
2018-03-20T13:15:50.740Z,3.69
2018-03-20T13:16:56.105Z,3.71
2018-03-20T13:18:01.832Z,3.68
2018-03-20T13:19:07.558Z,3.65
2018-03-20T13:20:13.333Z,3.62
2018-03-20T13:21:19.054Z,3.58
2018-03-20T13:22:24.786Z,3.58
2018-03-20T13:23:30.527Z,3.59
2018-03-20T13:24:36.241Z,3.54
2018-03-20T13:25:42.939Z,3.49
2018-03-20T13:26:48.629Z,3.41
2018-03-20T13:27:55.110Z,3.33
2018-03-20T13:29:00.853Z,3.22
2018-03-20T13:30:06.586Z,3.19
2018-03-20T13:31:13.268Z,3.23
2018-03-20T13:32:18.990Z,3.28
2018-03-20T13:33:25.463Z,3.29
2018-03-20T13:34:31.603Z,3.30
2018-03-20T13:35:37.316Z,3.31
2018-03-20T13:36:43.800Z,3.28
2018-03-20T13:37:49.715Z,3.24
2018-03-20T13:38:55.417Z,3.21
2018-03-20T13:40:01.257Z,3.18
2018-03-20T13:41:06.994Z,3.13
2018-03-20T13:42:12.909Z,3.07
2018-03-20T13:43:18.714Z,3.03
2018-03-20T13:44:24.459Z,2.97
2018-03-20T13:45:33.929Z,2.98
2018-03-20T13:46:39.750Z,2.92
2018-03-20T13:47:48.093Z,2.93
2018-03-20T13:48:54.215Z,2.93
2018-03-20T13:49:59.999Z,2.96
2018-03-20T13:51:06.770Z,2.93
2018-03-20T13:52:12.503Z,2.84
2018-03-20T13:53:33.771Z,2.85
2018-03-20T13:54:39.489Z,2.90
2018-03-20T13:55:45.201Z,2.89
2018-03-20T13:56:50.941Z,2.87
2018-03-20T13:57:56.948Z,2.85
2018-03-20T13:59:02.654Z,2.83
2018-03-20T14:00:08.413Z,2.78
2018-03-20T14:01:14.309Z,2.75
2018-03-20T14:02:20.859Z,2.70
2018-03-20T14:03:26.588Z,2.67
2018-03-20T14:04:32.300Z,2.68
2018-03-20T14:05:38.020Z,2.70
2018-03-20T14:06:43.741Z,2.69
2018-03-20T14:07:49.761Z,2.72
2018-03-20T14:08:56.510Z,2.70
2018-03-20T14:10:02.330Z,2.69
2018-03-20T14:11:09.070Z,2.67
2018-03-20T14:12:15.799Z,2.63
2018-03-20T14:13:21.531Z,2.63
2018-03-20T14:14:27.252Z,2.65
2018-03-20T14:15:33.879Z,2.69
2018-03-20T14:16:39.606Z,2.74
2018-03-20T14:17:45.427Z,2.78
2018-03-20T14:18:51.248Z,2.81
2018-03-20T14:19:57.031Z,2.83
2018-03-20T14:21:04.094Z,2.80
2018-03-20T14:22:10.112Z,2.82
2018-03-20T14:23:15.907Z,2.85
2018-03-20T14:24:22.055Z,2.88
2018-03-20T14:25:27.778Z,2.92
2018-03-20T14:26:33.506Z,2.94
2018-03-20T14:27:40.181Z,2.95
2018-03-20T14:28:45.935Z,2.95
2018-03-20T14:29:51.701Z,2.94
2018-03-20T14:30:58.381Z,2.94